sensor_id;sensor_type;location;lat;lon;timestamp;pressure;altitude;pressure_sealevel;temperature;humidity
27712;BME280;2377;51.734;8.950;2022-09-09T00:01:54;97254.63;;;15.64;79.25
27712;BME280;2377;51.734;8.950;2022-09-09T00:04:28;97256.16;;;15.60;79.13
27712;BME280;2377;51.734;8.950;2022-09-09T00:07:04;97246.84;;;15.59;78.89
27712;BME280;2377;51.734;8.950;2022-09-09T00:09:45;97243.28;;;15.55;78.74
27712;BME280;2377;51.734;8.950;2022-09-09T00:12:25;97240.19;;;15.53;78.58
27712;BME280;2377;51.734;8.950;2022-09-09T00:15:00;97236.31;;;15.50;78.96
27712;BME280;2377;51.734;8.950;2022-09-09T00:17:36;97241.47;;;15.45;79.57
27712;BME280;2377;51.734;8.950;2022-09-09T00:20:14;97244.31;;;15.43;79.34
27712;BME280;2377;51.734;8.950;2022-09-09T00:22:58;97245.06;;;15.44;79.47
27712;BME280;2377;51.734;8.950;2022-09-09T00:25:35;97241.47;;;15.45;79.80
27712;BME280;2377;51.734;8.950;2022-09-09T00:28:16;97244.81;;;15.46;80.06
27712;BME280;2377;51.734;8.950;2022-09-09T00:30:46;97234.50;;;15.46;79.98
27712;BME280;2377;51.734;8.950;2022-09-09T00:33:18;97235.00;;;15.42;80.07
27712;BME280;2377;51.734;8.950;2022-09-09T00:35:50;97230.13;;;15.41;80.17
27712;BME280;2377;51.734;8.950;2022-09-09T00:38:28;97237.59;;;15.42;80.10
27712;BME280;2377;51.734;8.950;2022-09-09T00:41:03;97229.63;;;15.39;80.25
27712;BME280;2377;51.734;8.950;2022-09-09T00:43:37;97222.66;;;15.39;80.58
27712;BME280;2377;51.734;8.950;2022-09-09T00:46:44;97224.72;;;15.37;80.56
27712;BME280;2377;51.734;8.950;2022-09-09T00:49:27;97221.88;;;15.39;80.46
27712;BME280;2377;51.734;8.950;2022-09-09T00:52:11;97222.91;;;15.38;80.62
27712;BME280;2377;51.734;8.950;2022-09-09T00:55:02;97230.63;;;15.38;80.45
27712;BME280;2377;51.734;8.950;2022-09-09T00:57:34;97232.19;;;15.39;80.67
27712;BME280;2377;51.734;8.950;2022-09-09T01:00:20;97240.44;;;15.36;81.54
27712;BME280;2377;51.734;8.950;2022-09-09T01:03:08;97248.16;;;15.36;82.12
27712;BME280;2377;51.734;8.950;2022-09-09T01:05:46;97253.03;;;15.32;82.68
27712;BME280;2377;51.734;8.950;2022-09-09T01:08:39;97245.31;;;15.32;83.22
27712;BME280;2377;51.734;8.950;2022-09-09T01:11:20;97253.03;;;15.32;83.74
27712;BME280;2377;51.734;8.950;2022-09-09T01:13:56;97244.78;;;15.35;83.39
27712;BME280;2377;51.734;8.950;2022-09-09T01:16:30;97253.56;;;15.39;83.65
27712;BME280;2377;51.734;8.950;2022-09-09T01:19:00;97237.09;;;15.46;83.50
27712;BME280;2377;51.734;8.950;2022-09-09T01:21:41;97241.19;;;15.52;83.70
27712;BME280;2377;51.734;8.950;2022-09-09T01:24:23;97246.38;;;15.57;83.68
27712;BME280;2377;51.734;8.950;2022-09-09T01:26:58;97245.31;;;15.63;84.76
27712;BME280;2377;51.734;8.950;2022-09-09T01:29:26;97252.53;;;15.66;84.53
27712;BME280;2377;51.734;8.950;2022-09-09T01:31:56;97250.22;;;15.70;84.72
27712;BME280;2377;51.734;8.950;2022-09-09T01:34:29;97252.28;;;15.73;84.73
27712;BME280;2377;51.734;8.950;2022-09-09T01:37:02;97246.88;;;15.74;84.94
27712;BME280;2377;51.734;8.950;2022-09-09T01:39:33;97246.88;;;15.79;84.95
27712;BME280;2377;51.734;8.950;2022-09-09T01:42:05;97253.31;;;15.82;85.05
27712;BME280;2377;51.734;8.950;2022-09-09T01:44:36;97253.06;;;15.83;85.03
27712;BME280;2377;51.734;8.950;2022-09-09T01:47:05;97248.16;;;15.87;85.24
27712;BME280;2377;51.734;8.950;2022-09-09T01:49:33;97244.56;;;15.88;85.28
27712;BME280;2377;51.734;8.950;2022-09-09T01:52:00;97247.91;;;15.89;85.65
27712;BME280;2377;51.734;8.950;2022-09-09T01:54:31;97239.13;;;15.90;86.19
27712;BME280;2377;51.734;8.950;2022-09-09T01:57:14;97240.16;;;15.89;85.68
27712;BME280;2377;51.734;8.950;2022-09-09T01:59:54;97235.78;;;15.89;85.74
27712;BME280;2377;51.734;8.950;2022-09-09T02:02:30;97239.66;;;15.87;85.77
27712;BME280;2377;51.734;8.950;2022-09-09T02:05:14;97244.56;;;15.83;85.50
27712;BME280;2377;51.734;8.950;2022-09-09T02:07:49;97242.25;;;15.81;85.64
27712;BME280;2377;51.734;8.950;2022-09-09T02:10:22;97235.81;;;15.79;85.32
27712;BME280;2377;51.734;8.950;2022-09-09T02:13:01;97236.34;;;15.76;85.16
27712;BME280;2377;51.734;8.950;2022-09-09T02:15:35;97237.63;;;15.73;85.12
27712;BME280;2377;51.734;8.950;2022-09-09T02:18:10;97234.00;;;15.69;84.95
27712;BME280;2377;51.734;8.950;2022-09-09T02:20:39;97234.25;;;15.68;84.80
27712;BME280;2377;51.734;8.950;2022-09-09T02:23:09;97239.63;;;15.66;84.54
27712;BME280;2377;51.734;8.950;2022-09-09T02:25:41;97236.28;;;15.65;84.57
27712;BME280;2377;51.734;8.950;2022-09-09T02:28:14;97243.78;;;15.62;84.64
27712;BME280;2377;51.734;8.950;2022-09-09T02:30:45;97236.56;;;15.59;84.61
27712;BME280;2377;51.734;8.950;2022-09-09T02:33:14;97225.47;;;15.58;84.85
27712;BME280;2377;51.734;8.950;2022-09-09T02:35:44;97228.84;;;15.54;84.91
27712;BME280;2377;51.734;8.950;2022-09-09T02:38:15;97231.41;;;15.54;85.26
27712;BME280;2377;51.734;8.950;2022-09-09T02:40:43;97228.59;;;15.55;85.32
27712;BME280;2377;51.734;8.950;2022-09-09T02:43:14;97230.63;;;15.58;85.34
27712;BME280;2377;51.734;8.950;2022-09-09T02:45:55;97241.72;;;15.59;85.42
27712;BME280;2377;51.734;8.950;2022-09-09T02:48:34;97222.66;;;15.60;85.39
27712;BME280;2377;51.734;8.950;2022-09-09T02:51:15;97241.22;;;15.62;85.40
27712;BME280;2377;51.734;8.950;2022-09-09T02:53:55;97244.31;;;15.64;85.71
27712;BME280;2377;51.734;8.950;2022-09-09T02:56:31;97245.31;;;15.63;86.05
27712;BME280;2377;51.734;8.950;2022-09-09T02:59:03;97242.22;;;15.66;86.06
27712;BME280;2377;51.734;8.950;2022-09-09T03:01:31;97243.78;;;15.67;85.94
27712;BME280;2377;51.734;8.950;2022-09-09T03:03:58;97249.69;;;15.68;85.81
27712;BME280;2377;51.734;8.950;2022-09-09T03:06:26;97247.88;;;15.68;85.66
27712;BME280;2377;51.734;8.950;2022-09-09T03:08:54;97251.78;;;15.71;85.87
27712;BME280;2377;51.734;8.950;2022-09-09T03:11:21;97251.25;;;15.69;85.67
27712;BME280;2377;51.734;8.950;2022-09-09T03:13:48;97239.63;;;15.66;85.46
27712;BME280;2377;51.734;8.950;2022-09-09T03:16:17;97246.59;;;15.65;85.57
27712;BME280;2377;51.734;8.950;2022-09-09T03:18:44;97238.63;;;15.67;85.74
27712;BME280;2377;51.734;8.950;2022-09-09T03:21:11;97253.59;;;15.70;85.73
27712;BME280;2377;51.734;8.950;2022-09-09T03:23:39;97250.00;;;15.71;85.87
27712;BME280;2377;51.734;8.950;2022-09-09T03:26:07;97249.72;;;15.73;85.86
27712;BME280;2377;51.734;8.950;2022-09-09T03:28:34;97247.13;;;15.73;85.77
27712;BME280;2377;51.734;8.950;2022-09-09T03:31:05;97247.63;;;15.70;85.92
27712;BME280;2377;51.734;8.950;2022-09-09T03:33:35;97242.28;;;15.71;86.46
27712;BME280;2377;51.734;8.950;2022-09-09T03:36:03;97246.13;;;15.74;86.36
27712;BME280;2377;51.734;8.950;2022-09-09T03:38:31;97238.41;;;15.74;86.46
27712;BME280;2377;51.734;8.950;2022-09-09T03:40:59;97240.69;;;15.75;86.50
27712;BME280;2377;51.734;8.950;2022-09-09T03:43:28;97239.41;;;15.78;86.59
27712;BME280;2377;51.734;8.950;2022-09-09T03:45:55;97229.09;;;15.78;86.86
27712;BME280;2377;51.734;8.950;2022-09-09T03:48:24;97230.91;;;15.77;86.30
27712;BME280;2377;51.734;8.950;2022-09-09T03:50:55;97229.88;;;15.78;86.25
27712;BME280;2377;51.734;8.950;2022-09-09T03:53:25;97228.31;;;15.77;86.36
27712;BME280;2377;51.734;8.950;2022-09-09T03:55:56;97228.06;;;15.79;86.30
27712;BME280;2377;51.734;8.950;2022-09-09T03:58:26;97216.72;;;15.80;86.42
27712;BME280;2377;51.734;8.950;2022-09-09T04:00:55;97218.03;;;15.77;86.10
27712;BME280;2377;51.734;8.950;2022-09-09T04:03:23;97218.56;;;15.74;86.16
27712;BME280;2377;51.734;8.950;2022-09-09T04:05:53;97217.78;;;15.74;86.12
27712;BME280;2377;51.734;8.950;2022-09-09T04:08:21;97215.47;;;15.72;86.15
27712;BME280;2377;51.734;8.950;2022-09-09T04:10:52;97214.94;;;15.70;86.18
27712;BME280;2377;51.734;8.950;2022-09-09T04:13:20;97212.38;;;15.70;86.48
27712;BME280;2377;51.734;8.950;2022-09-09T04:15:51;97217.50;;;15.70;86.26
27712;BME280;2377;51.734;8.950;2022-09-09T04:18:19;97215.19;;;15.69;86.41
27712;BME280;2377;51.734;8.950;2022-09-09T04:20:47;97215.94;;;15.69;86.13
27712;BME280;2377;51.734;8.950;2022-09-09T04:23:18;97217.75;;;15.69;86.19
27712;BME280;2377;51.734;8.950;2022-09-09T04:25:46;97223.16;;;15.67;86.05
27712;BME280;2377;51.734;8.950;2022-09-09T04:28:15;97231.66;;;15.68;85.98
27712;BME280;2377;51.734;8.950;2022-09-09T04:30:43;97236.81;;;15.68;86.05
27712;BME280;2377;51.734;8.950;2022-09-09T04:33:11;97235.53;;;15.65;86.07
27712;BME280;2377;51.734;8.950;2022-09-09T04:35:39;97238.63;;;15.62;86.33
27712;BME280;2377;51.734;8.950;2022-09-09T04:38:10;97238.63;;;15.62;86.23
27712;BME280;2377;51.734;8.950;2022-09-09T04:40:39;97246.38;;;15.62;86.32
27712;BME280;2377;51.734;8.950;2022-09-09T04:43:09;97236.81;;;15.62;86.48
27712;BME280;2377;51.734;8.950;2022-09-09T04:45:36;97248.41;;;15.60;86.32
27712;BME280;2377;51.734;8.950;2022-09-09T04:48:03;97246.38;;;15.62;86.53
27712;BME280;2377;51.734;8.950;2022-09-09T04:50:30;97252.81;;;15.64;86.62
27712;BME280;2377;51.734;8.950;2022-09-09T04:53:00;97253.03;;;15.68;86.51
27712;BME280;2377;51.734;8.950;2022-09-09T04:55:28;97252.78;;;15.70;86.50
27712;BME280;2377;51.734;8.950;2022-09-09T04:57:57;97253.34;;;15.72;86.45
27712;BME280;2377;51.734;8.950;2022-09-09T05:00:25;97254.59;;;15.69;86.55
27712;BME280;2377;51.734;8.950;2022-09-09T05:02:52;97249.94;;;15.66;86.03
27712;BME280;2377;51.734;8.950;2022-09-09T05:05:19;97252.53;;;15.66;86.07
27712;BME280;2377;51.734;8.950;2022-09-09T05:07:46;97251.50;;;15.62;85.82
27712;BME280;2377;51.734;8.950;2022-09-09T05:10:14;97243.00;;;15.56;85.65
27712;BME280;2377;51.734;8.950;2022-09-09T05:12:42;97248.41;;;15.50;85.37
27712;BME280;2377;51.734;8.950;2022-09-09T05:15:11;97245.59;;;15.46;85.56
27712;BME280;2377;51.734;8.950;2022-09-09T05:17:38;97245.31;;;15.42;85.74
27712;BME280;2377;51.734;8.950;2022-09-09T05:20:06;97253.03;;;15.42;85.87
27712;BME280;2377;51.734;8.950;2022-09-09T05:22:33;97264.91;;;15.38;85.88
27712;BME280;2377;51.734;8.950;2022-09-09T05:25:00;97259.47;;;15.40;85.87
27712;BME280;2377;51.734;8.950;2022-09-09T05:27:27;97255.88;;;15.41;85.88
27712;BME280;2377;51.734;8.950;2022-09-09T05:29:57;97256.13;;;15.39;86.13
27712;BME280;2377;51.734;8.950;2022-09-09T05:32:25;97260.28;;;15.40;86.21
27712;BME280;2377;51.734;8.950;2022-09-09T05:34:53;97249.44;;;15.33;86.72
27712;BME280;2377;51.734;8.950;2022-09-09T05:37:20;97252.28;;;15.32;86.80
27712;BME280;2377;51.734;8.950;2022-09-09T05:39:49;97256.66;;;15.31;87.34
27712;BME280;2377;51.734;8.950;2022-09-09T05:42:19;97259.47;;;15.30;87.30
27712;BME280;2377;51.734;8.950;2022-09-09T05:44:46;97263.88;;;15.34;87.32
27712;BME280;2377;51.734;8.950;2022-09-09T05:47:13;97266.69;;;15.38;87.11
27712;BME280;2377;51.734;8.950;2022-09-09T05:49:42;97265.44;;;15.40;87.10
27712;BME280;2377;51.734;8.950;2022-09-09T05:52:09;97264.91;;;15.43;87.05
27712;BME280;2377;51.734;8.950;2022-09-09T05:54:36;97264.66;;;15.45;87.17
27712;BME280;2377;51.734;8.950;2022-09-09T05:57:05;97270.31;;;15.47;87.06
27712;BME280;2377;51.734;8.950;2022-09-09T05:59:32;97265.94;;;15.48;87.08
27712;BME280;2377;51.734;8.950;2022-09-09T06:01:59;97264.66;;;15.50;87.18
27712;BME280;2377;51.734;8.950;2022-09-09T06:04:26;97266.47;;;15.55;86.97
27712;BME280;2377;51.734;8.950;2022-09-09T06:06:54;97260.53;;;15.59;87.10
27712;BME280;2377;51.734;8.950;2022-09-09T06:09:21;97262.81;;;15.66;87.12
27712;BME280;2377;51.734;8.950;2022-09-09T06:11:48;97265.47;;;15.71;87.08
27712;BME280;2377;51.734;8.950;2022-09-09T06:14:15;97264.94;;;15.74;87.18
27712;BME280;2377;51.734;8.950;2022-09-09T06:16:43;97272.91;;;15.78;87.27
27712;BME280;2377;51.734;8.950;2022-09-09T06:19:10;97273.94;;;15.82;87.16
27712;BME280;2377;51.734;8.950;2022-09-09T06:21:38;97266.72;;;15.89;87.24
27712;BME280;2377;51.734;8.950;2022-09-09T06:24:07;97273.16;;;15.97;87.12
27712;BME280;2377;51.734;8.950;2022-09-09T06:26:36;97267.47;;;16.05;87.27
27712;BME280;2377;51.734;8.950;2022-09-09T06:29:07;97272.88;;;16.14;87.52
27712;BME280;2377;51.734;8.950;2022-09-09T06:31:36;97271.56;;;16.21;87.53
27712;BME280;2377;51.734;8.950;2022-09-09T06:34:06;97272.56;;;16.31;87.58
27712;BME280;2377;51.734;8.950;2022-09-09T06:36:36;97269.97;;;16.41;87.36
27712;BME280;2377;51.734;8.950;2022-09-09T06:39:04;97276.66;;;16.47;87.50
27712;BME280;2377;51.734;8.950;2022-09-09T06:41:33;97274.06;;;16.52;87.43
27712;BME280;2377;51.734;8.950;2022-09-09T06:44:01;97268.63;;;16.59;87.36
27712;BME280;2377;51.734;8.950;2022-09-09T06:46:31;97279.97;;;16.63;87.34
27712;BME280;2377;51.734;8.950;2022-09-09T06:48:59;97282.78;;;16.66;87.25
27712;BME280;2377;51.734;8.950;2022-09-09T06:51:30;97281.97;;;16.71;87.16
27712;BME280;2377;51.734;8.950;2022-09-09T06:54:01;97276.03;;;16.76;87.14
27712;BME280;2377;51.734;8.950;2022-09-09T06:56:31;97282.75;;;16.82;87.26
27712;BME280;2377;51.734;8.950;2022-09-09T06:59:02;97289.44;;;16.83;86.90
27712;BME280;2377;51.734;8.950;2022-09-09T07:01:33;97294.59;;;16.83;87.24
27712;BME280;2377;51.734;8.950;2022-09-09T07:04:03;97297.69;;;16.85;87.81
27712;BME280;2377;51.734;8.950;2022-09-09T07:06:35;97292.50;;;16.90;87.30
27712;BME280;2377;51.734;8.950;2022-09-09T07:09:05;97290.69;;;16.90;87.34
27712;BME280;2377;51.734;8.950;2022-09-09T07:11:38;97296.66;;;16.91;87.17
27712;BME280;2377;51.734;8.950;2022-09-09T07:14:08;97295.09;;;16.90;87.37
27712;BME280;2377;51.734;8.950;2022-09-09T07:16:38;97290.69;;;16.90;87.10
27712;BME280;2377;51.734;8.950;2022-09-09T07:19:06;97300.50;;;16.88;87.20
27712;BME280;2377;51.734;8.950;2022-09-09T07:21:33;97292.25;;;16.92;87.00
27712;BME280;2377;51.734;8.950;2022-09-09T07:24:01;97290.94;;;16.94;86.94
27712;BME280;2377;51.734;8.950;2022-09-09T07:26:31;97295.31;;;16.99;87.50
27712;BME280;2377;51.734;8.950;2022-09-09T07:28:58;97296.81;;;17.05;86.97
27712;BME280;2377;51.734;8.950;2022-09-09T07:31:28;97298.59;;;17.09;87.26
27712;BME280;2377;51.734;8.950;2022-09-09T07:33:56;97294.69;;;17.17;86.95
27712;BME280;2377;51.734;8.950;2022-09-09T07:36:27;97286.66;;;17.24;87.07
27712;BME280;2377;51.734;8.950;2022-09-09T07:38:57;97292.28;;;17.31;86.63
27712;BME280;2377;51.734;8.950;2022-09-09T07:41:28;97291.50;;;17.36;85.50
27712;BME280;2377;51.734;8.950;2022-09-09T07:43:56;97289.38;;;17.38;86.14
27712;BME280;2377;51.734;8.950;2022-09-09T07:46:27;97292.72;;;17.43;86.15
27712;BME280;2377;51.734;8.950;2022-09-09T07:48:56;97295.81;;;17.45;85.75
27712;BME280;2377;51.734;8.950;2022-09-09T07:51:27;97295.78;;;17.50;85.85
27712;BME280;2377;51.734;8.950;2022-09-09T07:53:57;97289.78;;;17.55;86.05
27712;BME280;2377;51.734;8.950;2022-09-09T07:56:26;97296.69;;;17.65;85.71
27712;BME280;2377;51.734;8.950;2022-09-09T07:58:56;97294.19;;;17.89;86.08
27712;BME280;2377;51.734;8.950;2022-09-09T08:01:29;97288.53;;;18.16;86.23
27712;BME280;2377;51.734;8.950;2022-09-09T08:03:59;97287.97;;;18.43;82.24
27712;BME280;2377;51.734;8.950;2022-09-09T08:06:33;97295.66;;;18.48;83.17
27712;BME280;2377;51.734;8.950;2022-09-09T08:09:01;97288.63;;;18.54;82.25
27712;BME280;2377;51.734;8.950;2022-09-09T08:11:30;97292.63;;;18.46;80.99
27712;BME280;2377;51.734;8.950;2022-09-09T08:13:59;97290.84;;;18.42;81.02
27712;BME280;2377;51.734;8.950;2022-09-09T08:16:30;97296.56;;;18.38;81.48
27712;BME280;2377;51.734;8.950;2022-09-09T08:18:58;97299.72;;;18.35;81.69
27712;BME280;2377;51.734;8.950;2022-09-09T08:21:28;97305.94;;;18.34;82.65
27712;BME280;2377;51.734;8.950;2022-09-09T08:23:59;97300.16;;;18.43;82.53
27712;BME280;2377;51.734;8.950;2022-09-09T08:26:29;97303.94;;;18.50;82.66
27712;BME280;2377;51.734;8.950;2022-09-09T08:28:58;97305.16;;;18.58;82.55
27712;BME280;2377;51.734;8.950;2022-09-09T08:31:30;97302.94;;;18.70;82.83
27712;BME280;2377;51.734;8.950;2022-09-09T08:33:59;97308.06;;;18.75;81.91
27712;BME280;2377;51.734;8.950;2022-09-09T08:36:28;97311.53;;;18.90;81.07
27712;BME280;2377;51.734;8.950;2022-09-09T08:38:57;97308.63;;;19.15;80.64
27712;BME280;2377;51.734;8.950;2022-09-09T08:41:42;97306.94;;;19.25;79.23
27712;BME280;2377;51.734;8.950;2022-09-09T08:44:25;97317.66;;;19.37;79.45
27712;BME280;2377;51.734;8.950;2022-09-09T08:47:09;97319.63;;;19.45;79.04
27712;BME280;2377;51.734;8.950;2022-09-09T08:50:06;97310.44;;;19.53;77.93
27712;BME280;2377;51.734;8.950;2022-09-09T08:52:44;97318.03;;;19.63;77.17
27712;BME280;2377;51.734;8.950;2022-09-09T08:55:25;97324.88;;;19.92;76.62
27712;BME280;2377;51.734;8.950;2022-09-09T08:57:58;97327.53;;;20.19;75.79
27712;BME280;2377;51.734;8.950;2022-09-09T09:00:40;97324.75;;;20.43;74.98
27712;BME280;2377;51.734;8.950;2022-09-09T09:03:28;97322.19;;;20.71;73.66
27712;BME280;2377;51.734;8.950;2022-09-09T09:06:08;97330.25;;;20.83;71.05
27712;BME280;2377;51.734;8.950;2022-09-09T09:08:46;97325.00;;;20.75;71.29
27712;BME280;2377;51.734;8.950;2022-09-09T09:11:17;97322.78;;;20.68;71.01
27712;BME280;2377;51.734;8.950;2022-09-09T09:13:52;97324.03;;;20.71;71.46
27712;BME280;2377;51.734;8.950;2022-09-09T09:16:29;97319.47;;;20.90;69.32
27712;BME280;2377;51.734;8.950;2022-09-09T09:19:00;97321.31;;;20.89;70.72
27712;BME280;2377;51.734;8.950;2022-09-09T09:21:38;97319.97;;;20.78;69.29
27712;BME280;2377;51.734;8.950;2022-09-09T09:24:15;97323.44;;;20.60;68.59
27712;BME280;2377;51.734;8.950;2022-09-09T09:26:45;97312.84;;;20.42;69.21
27712;BME280;2377;51.734;8.950;2022-09-09T09:29:15;97315.31;;;20.34;70.05
27712;BME280;2377;51.734;8.950;2022-09-09T09:31:48;97313.19;;;20.22;69.96
27712;BME280;2377;51.734;8.950;2022-09-09T09:34:19;97308.19;;;20.12;69.63
27712;BME280;2377;51.734;8.950;2022-09-09T09:36:54;97318.38;;;20.08;69.89
27712;BME280;2377;51.734;8.950;2022-09-09T09:39:28;97318.00;;;20.15;70.74
27712;BME280;2377;51.734;8.950;2022-09-09T09:41:56;97307.47;;;20.25;71.98
27712;BME280;2377;51.734;8.950;2022-09-09T09:44:26;97317.66;;;20.49;71.65
27712;BME280;2377;51.734;8.950;2022-09-09T09:47:06;97302.28;;;20.66;71.84
27712;BME280;2377;51.734;8.950;2022-09-09T09:49:35;97301.59;;;20.75;71.56
27712;BME280;2377;51.734;8.950;2022-09-09T09:52:04;97299.78;;;20.75;70.49
27712;BME280;2377;51.734;8.950;2022-09-09T09:54:37;97302.84;;;20.77;71.16
27712;BME280;2377;51.734;8.950;2022-09-09T09:57:10;97312.09;;;20.69;69.04
27712;BME280;2377;51.734;8.950;2022-09-09T09:59:38;97313.84;;;20.60;66.63
27712;BME280;2377;51.734;8.950;2022-09-09T10:02:20;97318.06;;;20.56;65.48
27712;BME280;2377;51.734;8.950;2022-09-09T10:05:05;97312.66;;;20.66;64.38
27712;BME280;2377;51.734;8.950;2022-09-09T10:07:33;97314.00;;;20.78;65.16
27712;BME280;2377;51.734;8.950;2022-09-09T10:10:04;97317.75;;;20.85;65.30
27712;BME280;2377;51.734;8.950;2022-09-09T10:12:46;97314.59;;;20.75;63.08
27712;BME280;2377;51.734;8.950;2022-09-09T10:15:37;97317.31;;;20.69;65.58
27712;BME280;2377;51.734;8.950;2022-09-09T10:18:36;97311.13;;;20.65;65.86
27712;BME280;2377;51.734;8.950;2022-09-09T10:21:24;97311.22;;;20.74;65.59
27712;BME280;2377;51.734;8.950;2022-09-09T10:24:20;97313.41;;;20.81;64.91
27712;BME280;2377;51.734;8.950;2022-09-09T10:27:03;97304.19;;;20.88;64.46
27712;BME280;2377;51.734;8.950;2022-09-09T10:29:53;97312.84;;;20.84;62.56
27712;BME280;2377;51.734;8.950;2022-09-09T10:32:38;97313.41;;;20.81;61.83
27712;BME280;2377;51.734;8.950;2022-09-09T10:35:19;97307.28;;;20.77;63.02
27712;BME280;2377;51.734;8.950;2022-09-09T10:38:16;97309.69;;;20.73;61.79
27712;BME280;2377;51.734;8.950;2022-09-09T10:44:34;97289.75;;;20.82;60.22
27712;BME280;2377;51.734;8.950;2022-09-09T10:47:53;97286.78;;;21.11;60.79
27712;BME280;2377;51.734;8.950;2022-09-09T10:50:48;97291.28;;;21.56;59.78
27712;BME280;2377;51.734;8.950;2022-09-09T10:53:35;97285.25;;;21.69;59.46
27712;BME280;2377;51.734;8.950;2022-09-09T10:56:08;97288.47;;;21.75;58.78
27712;BME280;2377;51.734;8.950;2022-09-09T10:58:44;97287.84;;;21.69;57.37
27712;BME280;2377;51.734;8.950;2022-09-09T11:01:21;97276.84;;;21.72;57.17
27712;BME280;2377;51.734;8.950;2022-09-09T11:03:56;97279.50;;;21.81;56.82
27712;BME280;2377;51.734;8.950;2022-09-09T11:06:32;97290.25;;;21.88;55.81
27712;BME280;2377;51.734;8.950;2022-09-09T11:09:05;97299.69;;;22.07;57.79
27712;BME280;2377;51.734;8.950;2022-09-09T11:11:39;97298.53;;;22.22;57.54
27712;BME280;2377;51.734;8.950;2022-09-09T11:14:16;97287.59;;;22.42;56.55
27712;BME280;2377;51.734;8.950;2022-09-09T11:16:51;97294.94;;;22.40;55.99
27712;BME280;2377;51.734;8.950;2022-09-09T11:19:26;97287.59;;;22.42;55.24
27712;BME280;2377;51.734;8.950;2022-09-09T11:21:57;97273.94;;;22.36;54.11
27712;BME280;2377;51.734;8.950;2022-09-09T11:24:34;97285.84;;;22.29;52.48
27712;BME280;2377;51.734;8.950;2022-09-09T11:27:14;97288.41;;;22.20;53.63
27712;BME280;2377;51.734;8.950;2022-09-09T11:30:12;97283.16;;;22.11;52.45
27712;BME280;2377;51.734;8.950;2022-09-09T11:36:33;97279.13;;;22.28;54.03
27712;BME280;2377;51.734;8.950;2022-09-09T11:39:35;97279.72;;;22.25;52.64
27712;BME280;2377;51.734;8.950;2022-09-09T11:42:16;97281.03;;;22.13;51.34
27712;BME280;2377;51.734;8.950;2022-09-09T11:44:45;97276.44;;;22.19;52.79
27712;BME280;2377;51.734;8.950;2022-09-09T11:47:23;97283.78;;;22.08;52.74
27712;BME280;2377;51.734;8.950;2022-09-09T11:49:55;97280.78;;;22.01;52.89
27712;BME280;2377;51.734;8.950;2022-09-09T11:52:38;97279.28;;;22.00;52.81
27712;BME280;2377;51.734;8.950;2022-09-09T11:55:26;97282.78;;;21.95;51.95
27712;BME280;2377;51.734;8.950;2022-09-09T11:57:58;97279.69;;;21.93;52.99
27712;BME280;2377;51.734;8.950;2022-09-09T12:00:35;97284.63;;;21.72;54.07
27712;BME280;2377;51.734;8.950;2022-09-09T12:03:04;97276.41;;;21.79;55.72
27712;BME280;2377;51.734;8.950;2022-09-09T12:05:39;97272.97;;;21.92;57.99
27712;BME280;2377;51.734;8.950;2022-09-09T12:08:09;97273.94;;;22.05;57.12
27712;BME280;2377;51.734;8.950;2022-09-09T12:10:40;97277.91;;;22.03;55.56
27712;BME280;2377;51.734;8.950;2022-09-09T12:13:17;97284.44;;;21.91;54.52
27712;BME280;2377;51.734;8.950;2022-09-09T12:15:49;97284.56;;;21.86;54.18
27712;BME280;2377;51.734;8.950;2022-09-09T12:18:24;97282.38;;;21.80;53.65
27712;BME280;2377;51.734;8.950;2022-09-09T12:21:02;97285.94;;;21.84;52.67
27712;BME280;2377;51.734;8.950;2022-09-09T12:23:44;97284.22;;;21.79;52.52
27712;BME280;2377;51.734;8.950;2022-09-09T12:26:31;97287.28;;;21.81;53.28
27712;BME280;2377;51.734;8.950;2022-09-09T12:29:18;97289.34;;;21.93;54.50
27712;BME280;2377;51.734;8.950;2022-09-09T12:32:00;97296.41;;;22.01;51.96
27712;BME280;2377;51.734;8.950;2022-09-09T12:34:38;97297.38;;;22.05;51.49
27712;BME280;2377;51.734;8.950;2022-09-09T12:37:17;97299.94;;;21.97;51.39
27712;BME280;2377;51.734;8.950;2022-09-09T12:39:50;97294.25;;;21.94;51.36
27712;BME280;2377;51.734;8.950;2022-09-09T12:42:22;97298.47;;;22.13;52.39
27712;BME280;2377;51.734;8.950;2022-09-09T12:44:55;97301.03;;;22.35;51.63
27712;BME280;2377;51.734;8.950;2022-09-09T12:47:37;97289.25;;;22.38;51.95
27712;BME280;2377;51.734;8.950;2022-09-09T12:50:16;97281.41;;;22.29;49.48
27712;BME280;2377;51.734;8.950;2022-09-09T12:52:45;97281.28;;;22.43;51.06
27712;BME280;2377;51.734;8.950;2022-09-09T12:55:19;97280.53;;;22.43;49.92
27712;BME280;2377;51.734;8.950;2022-09-09T12:57:49;97279.28;;;22.40;49.20
27712;BME280;2377;51.734;8.950;2022-09-09T13:00:20;97293.97;;;22.27;49.71
27712;BME280;2377;51.734;8.950;2022-09-09T13:02:51;97283.78;;;22.17;49.84
27712;BME280;2377;51.734;8.950;2022-09-09T13:05:23;97280.38;;;22.08;49.98
27712;BME280;2377;51.734;8.950;2022-09-09T13:07:51;97282.00;;;21.95;51.84
27712;BME280;2377;51.734;8.950;2022-09-09T13:10:27;97285.47;;;21.82;55.18
27712;BME280;2377;51.734;8.950;2022-09-09T13:12:57;97276.34;;;21.70;57.78
27712;BME280;2377;51.734;8.950;2022-09-09T13:15:29;97273.94;;;21.74;60.29
27712;BME280;2377;51.734;8.950;2022-09-09T13:17:59;97265.72;;;21.81;61.00
27712;BME280;2377;51.734;8.950;2022-09-09T13:20:28;97264.69;;;21.90;58.74
27712;BME280;2377;51.734;8.950;2022-09-09T13:22:56;97264.84;;;21.94;58.24
27712;BME280;2377;51.734;8.950;2022-09-09T13:25:26;97261.00;;;21.91;55.58
27712;BME280;2377;51.734;8.950;2022-09-09T13:28:00;97257.50;;;21.96;54.51
27712;BME280;2377;51.734;8.950;2022-09-09T13:30:32;97246.84;;;22.06;53.76
27712;BME280;2377;51.734;8.950;2022-09-09T13:33:20;97256.22;;;22.16;53.01
27712;BME280;2377;51.734;8.950;2022-09-09T13:35:52;97249.94;;;22.17;52.39
27712;BME280;2377;51.734;8.950;2022-09-09T13:38:21;97254.09;;;22.18;53.23
27712;BME280;2377;51.734;8.950;2022-09-09T13:40:57;97252.75;;;22.21;52.96
27712;BME280;2377;51.734;8.950;2022-09-09T13:43:27;97257.97;;;22.29;51.78
27712;BME280;2377;51.734;8.950;2022-09-09T13:46:00;97257.66;;;22.31;51.83
27712;BME280;2377;51.734;8.950;2022-09-09T13:48:28;97252.78;;;22.38;53.57
27712;BME280;2377;51.734;8.950;2022-09-09T13:51:03;97248.97;;;22.44;52.52